sensor_id;sensor_type;location;lat;lon;timestamp;P1;durP1;ratioP1;P2;durP2;ratioP2
7805;SDS011;3948;48.138;11.530;2022-08-01T00:00:04;2.53;;;2.33;;
7805;SDS011;3948;48.138;11.530;2022-08-01T00:02:31;3.90;;;2.42;;
7805;SDS011;3948;48.138;11.530;2022-08-01T00:04:57;2.38;;;2.17;;
7805;SDS011;3948;48.138;11.530;2022-08-01T00:07:23;2.75;;;2.30;;
7805;SDS011;3948;48.138;11.530;2022-08-01T00:09:48;3.95;;;2.33;;
7805;SDS011;3948;48.138;11.530;2022-08-01T00:12:14;3.05;;;2.17;;
7805;SDS011;3948;48.138;11.530;2022-08-01T00:14:40;2.58;;;2.40;;
7805;SDS011;3948;48.138;11.530;2022-08-01T00:17:05;3.97;;;2.30;;
7805;SDS011;3948;48.138;11.530;2022-08-01T00:19:31;4.35;;;2.40;;
7805;SDS011;3948;48.138;11.530;2022-08-01T00:21:57;2.17;;;1.90;;
7805;SDS011;3948;48.138;11.530;2022-08-01T00:24:22;3.08;;;2.10;;
7805;SDS011;3948;48.138;11.530;2022-08-01T00:26:48;2.40;;;2.20;;
7805;SDS011;3948;48.138;11.530;2022-08-01T00:29:14;3.60;;;2.42;;
7805;SDS011;3948;48.138;11.530;2022-08-01T00:31:40;2.63;;;2.40;;
7805;SDS011;3948;48.138;11.530;2022-08-01T00:34:05;2.35;;;2.15;;
7805;SDS011;3948;48.138;11.530;2022-08-01T00:36:31;2.40;;;2.22;;
7805;SDS011;3948;48.138;11.530;2022-08-01T00:38:57;3.15;;;2.35;;
7805;SDS011;3948;48.138;11.530;2022-08-01T00:41:22;2.45;;;2.25;;
7805;SDS011;3948;48.138;11.530;2022-08-01T00:43:48;3.45;;;2.35;;
7805;SDS011;3948;48.138;11.530;2022-08-01T00:46:14;2.50;;;2.17;;
7805;SDS011;3948;48.138;11.530;2022-08-01T00:48:39;2.75;;;2.25;;
7805;SDS011;3948;48.138;11.530;2022-08-01T00:51:05;3.70;;;2.25;;
7805;SDS011;3948;48.138;11.530;2022-08-01T00:53:32;2.88;;;2.40;;
7805;SDS011;3948;48.138;11.530;2022-08-01T00:55:58;2.75;;;2.33;;
7805;SDS011;3948;48.138;11.530;2022-08-01T00:58:25;4.10;;;2.20;;
7805;SDS011;3948;48.138;11.530;2022-08-01T01:00:51;2.60;;;2.35;;
7805;SDS011;3948;48.138;11.530;2022-08-01T01:03:17;2.75;;;2.47;;
7805;SDS011;3948;48.138;11.530;2022-08-01T01:05:54;3.45;;;2.75;;
7805;SDS011;3948;48.138;11.530;2022-08-01T01:08:39;4.53;;;1.95;;
7805;SDS011;3948;48.138;11.530;2022-08-01T01:11:23;3.25;;;2.38;;
7805;SDS011;3948;48.138;11.530;2022-08-01T01:13:55;2.47;;;2.20;;
7805;SDS011;3948;48.138;11.530;2022-08-01T01:16:26;3.50;;;2.30;;
7805;SDS011;3948;48.138;11.530;2022-08-01T01:18:56;2.38;;;2.17;;
7805;SDS011;3948;48.138;11.530;2022-08-01T01:27:13;2.10;;;1.90;;
7805;SDS011;3948;48.138;11.530;2022-08-01T01:29:52;2.22;;;2.10;;
7805;SDS011;3948;48.138;11.530;2022-08-01T01:32:39;2.70;;;2.50;;
7805;SDS011;3948;48.138;11.530;2022-08-01T01:35:17;2.50;;;2.30;;
7805;SDS011;3948;48.138;11.530;2022-08-01T01:37:47;2.15;;;2.05;;
7805;SDS011;3948;48.138;11.530;2022-08-01T01:40:18;2.55;;;2.35;;
7805;SDS011;3948;48.138;11.530;2022-08-01T01:42:46;3.13;;;2.25;;
7805;SDS011;3948;48.138;11.530;2022-08-01T01:45:13;3.38;;;2.30;;
7805;SDS011;3948;48.138;11.530;2022-08-01T01:47:41;2.63;;;2.42;;
7805;SDS011;3948;48.138;11.530;2022-08-01T01:50:09;2.50;;;2.30;;
7805;SDS011;3948;48.138;11.530;2022-08-01T01:52:37;4.10;;;2.33;;
7805;SDS011;3948;48.138;11.530;2022-08-01T01:55:06;3.08;;;2.40;;
7805;SDS011;3948;48.138;11.530;2022-08-01T01:57:36;2.90;;;2.22;;
7805;SDS011;3948;48.138;11.530;2022-08-01T02:00:05;4.53;;;2.30;;
7805;SDS011;3948;48.138;11.530;2022-08-01T02:02:33;2.58;;;2.38;;
7805;SDS011;3948;48.138;11.530;2022-08-01T02:05:01;2.58;;;2.38;;
7805;SDS011;3948;48.138;11.530;2022-08-01T02:07:27;3.92;;;2.28;;
7805;SDS011;3948;48.138;11.530;2022-08-01T02:09:54;3.80;;;2.30;;
7805;SDS011;3948;48.138;11.530;2022-08-01T02:12:21;2.40;;;2.30;;
7805;SDS011;3948;48.138;11.530;2022-08-01T02:14:50;2.80;;;2.40;;
7805;SDS011;3948;48.138;11.530;2022-08-01T02:17:18;2.20;;;2.10;;
7805;SDS011;3948;48.138;11.530;2022-08-01T02:19:45;2.38;;;2.08;;
7805;SDS011;3948;48.138;11.530;2022-08-01T02:27:40;2.78;;;2.42;;
7805;SDS011;3948;48.138;11.530;2022-08-01T02:30:05;2.40;;;2.20;;
7805;SDS011;3948;48.138;11.530;2022-08-01T02:32:38;2.70;;;2.50;;
7805;SDS011;3948;48.138;11.530;2022-08-01T02:35:29;2.50;;;2.25;;
7805;SDS011;3948;48.138;11.530;2022-08-01T02:37:57;2.22;;;2.10;;
7805;SDS011;3948;48.138;11.530;2022-08-01T02:40:26;2.70;;;2.50;;
7805;SDS011;3948;48.138;11.530;2022-08-01T02:42:54;3.30;;;2.55;;
7805;SDS011;3948;48.138;11.530;2022-08-01T02:45:22;2.72;;;2.10;;
7805;SDS011;3948;48.138;11.530;2022-08-01T02:47:51;2.42;;;2.20;;
7805;SDS011;3948;48.138;11.530;2022-08-01T02:50:33;3.33;;;2.47;;
7805;SDS011;3948;48.138;11.530;2022-08-01T02:52:59;2.92;;;2.30;;
7805;SDS011;3948;48.138;11.530;2022-08-01T02:55:26;2.92;;;2.63;;
7805;SDS011;3948;48.138;11.530;2022-08-01T02:57:54;2.63;;;2.42;;
7805;SDS011;3948;48.138;11.530;2022-08-01T03:00:21;3.22;;;2.60;;
7805;SDS011;3948;48.138;11.530;2022-08-01T03:02:48;4.32;;;2.35;;
7805;SDS011;3948;48.138;11.530;2022-08-01T03:05:16;2.60;;;2.40;;
7805;SDS011;3948;48.138;11.530;2022-08-01T03:07:43;2.83;;;2.20;;
7805;SDS011;3948;48.138;11.530;2022-08-01T03:10:10;2.53;;;2.33;;
7805;SDS011;3948;48.138;11.530;2022-08-01T03:12:37;4.13;;;2.55;;
7805;SDS011;3948;48.138;11.530;2022-08-01T03:15:05;2.30;;;2.20;;
7805;SDS011;3948;48.138;11.530;2022-08-01T03:17:32;3.72;;;2.30;;
7805;SDS011;3948;48.138;11.530;2022-08-01T03:19:59;3.42;;;2.50;;
7805;SDS011;3948;48.138;11.530;2022-08-01T03:22:27;4.30;;;2.20;;
7805;SDS011;3948;48.138;11.530;2022-08-01T03:24:55;3.13;;;2.50;;
7805;SDS011;3948;48.138;11.530;2022-08-01T03:27:24;3.42;;;2.45;;
7805;SDS011;3948;48.138;11.530;2022-08-01T03:29:50;2.58;;;2.38;;
7805;SDS011;3948;48.138;11.530;2022-08-01T03:32:18;3.28;;;2.25;;
7805;SDS011;3948;48.138;11.530;2022-08-01T03:34:46;3.90;;;2.38;;
7805;SDS011;3948;48.138;11.530;2022-08-01T03:37:14;2.58;;;2.38;;
7805;SDS011;3948;48.138;11.530;2022-08-01T03:39:50;3.47;;;2.33;;
7805;SDS011;3948;48.138;11.530;2022-08-01T03:42:24;2.50;;;2.30;;
7805;SDS011;3948;48.138;11.530;2022-08-01T03:44:59;3.72;;;2.33;;
7805;SDS011;3948;48.138;11.530;2022-08-01T03:47:30;3.30;;;2.70;;
7805;SDS011;3948;48.138;11.530;2022-08-01T03:50:02;5.43;;;2.70;;
7805;SDS011;3948;48.138;11.530;2022-08-01T03:52:30;3.80;;;2.53;;
7805;SDS011;3948;48.138;11.530;2022-08-01T03:54:59;2.53;;;2.33;;
7805;SDS011;3948;48.138;11.530;2022-08-01T03:57:30;5.18;;;3.30;;
7805;SDS011;3948;48.138;11.530;2022-08-01T03:59:57;2.90;;;2.60;;
7805;SDS011;3948;48.138;11.530;2022-08-01T04:02:24;2.70;;;2.50;;
7805;SDS011;3948;48.138;11.530;2022-08-01T04:04:52;3.85;;;2.63;;
7805;SDS011;3948;48.138;11.530;2022-08-01T04:07:25;2.63;;;2.40;;
7805;SDS011;3948;48.138;11.530;2022-08-01T04:09:52;5.90;;;2.53;;
7805;SDS011;3948;48.138;11.530;2022-08-01T04:12:18;4.40;;;2.65;;
7805;SDS011;3948;48.138;11.530;2022-08-01T04:14:44;2.70;;;2.50;;
7805;SDS011;3948;48.138;11.530;2022-08-01T04:17:10;3.05;;;2.67;;
7805;SDS011;3948;48.138;11.530;2022-08-01T04:19:36;2.47;;;2.17;;
7805;SDS011;3948;48.138;11.530;2022-08-01T04:22:02;3.70;;;2.60;;
7805;SDS011;3948;48.138;11.530;2022-08-01T04:24:28;3.53;;;2.45;;
7805;SDS011;3948;48.138;11.530;2022-08-01T04:26:57;4.05;;;2.75;;
7805;SDS011;3948;48.138;11.530;2022-08-01T04:29:26;3.95;;;2.50;;
7805;SDS011;3948;48.138;11.530;2022-08-01T04:31:55;2.67;;;2.25;;
7805;SDS011;3948;48.138;11.530;2022-08-01T04:34:23;2.55;;;2.35;;
7805;SDS011;3948;48.138;11.530;2022-08-01T04:36:51;2.90;;;2.60;;
7805;SDS011;3948;48.138;11.530;2022-08-01T04:39:20;3.03;;;2.65;;
7805;SDS011;3948;48.138;11.530;2022-08-01T04:41:48;2.53;;;2.33;;
7805;SDS011;3948;48.138;11.530;2022-08-01T04:44:15;3.42;;;2.55;;
7805;SDS011;3948;48.138;11.530;2022-08-01T04:46:41;3.85;;;2.35;;
7805;SDS011;3948;48.138;11.530;2022-08-01T04:49:08;3.90;;;2.65;;
7805;SDS011;3948;48.138;11.530;2022-08-01T04:51:36;3.38;;;2.80;;
7805;SDS011;3948;48.138;11.530;2022-08-01T04:54:14;3.03;;;2.65;;
7805;SDS011;3948;48.138;11.530;2022-08-01T04:56:39;3.92;;;2.33;;
7805;SDS011;3948;48.138;11.530;2022-08-01T04:59:06;2.70;;;2.58;;
7805;SDS011;3948;48.138;11.530;2022-08-01T05:01:51;3.53;;;2.60;;
7805;SDS011;3948;48.138;11.530;2022-08-01T05:04:16;2.60;;;2.40;;
7805;SDS011;3948;48.138;11.530;2022-08-01T05:06:42;2.83;;;2.63;;
7805;SDS011;3948;48.138;11.530;2022-08-01T05:09:08;2.55;;;2.30;;
7805;SDS011;3948;48.138;11.530;2022-08-01T05:11:33;3.25;;;2.70;;
7805;SDS011;3948;48.138;11.530;2022-08-01T05:13:59;3.00;;;2.67;;
7805;SDS011;3948;48.138;11.530;2022-08-01T05:16:25;3.80;;;2.65;;
7805;SDS011;3948;48.138;11.530;2022-08-01T05:18:51;3.13;;;2.45;;
7805;SDS011;3948;48.138;11.530;2022-08-01T05:21:17;2.88;;;2.47;;
7805;SDS011;3948;48.138;11.530;2022-08-01T05:23:42;2.30;;;2.10;;
7805;SDS011;3948;48.138;11.530;2022-08-01T05:26:09;4.90;;;2.60;;
7805;SDS011;3948;48.138;11.530;2022-08-01T05:28:35;3.38;;;2.55;;
7805;SDS011;3948;48.138;11.530;2022-08-01T05:31:01;2.65;;;2.45;;
7805;SDS011;3948;48.138;11.530;2022-08-01T05:33:28;3.20;;;2.70;;
7805;SDS011;3948;48.138;11.530;2022-08-01T05:35:53;3.38;;;2.40;;
7805;SDS011;3948;48.138;11.530;2022-08-01T05:38:19;5.63;;;2.85;;
7805;SDS011;3948;48.138;11.530;2022-08-01T05:40:45;4.25;;;2.60;;
7805;SDS011;3948;48.138;11.530;2022-08-01T05:43:10;2.95;;;2.63;;
7805;SDS011;3948;48.138;11.530;2022-08-01T05:45:36;2.90;;;2.33;;
7805;SDS011;3948;48.138;11.530;2022-08-01T05:48:02;2.90;;;2.40;;
7805;SDS011;3948;48.138;11.530;2022-08-01T05:50:28;3.05;;;2.75;;
7805;SDS011;3948;48.138;11.530;2022-08-01T05:52:53;2.88;;;2.55;;
7805;SDS011;3948;48.138;11.530;2022-08-01T05:55:19;2.63;;;2.42;;
7805;SDS011;3948;48.138;11.530;2022-08-01T05:57:45;2.60;;;2.40;;
7805;SDS011;3948;48.138;11.530;2022-08-01T06:00:10;5.70;;;2.90;;
7805;SDS011;3948;48.138;11.530;2022-08-01T06:02:41;2.75;;;2.40;;
7805;SDS011;3948;48.138;11.530;2022-08-01T06:05:08;3.13;;;2.83;;
7805;SDS011;3948;48.138;11.530;2022-08-01T06:07:34;2.72;;;2.50;;
7805;SDS011;3948;48.138;11.530;2022-08-01T06:10:00;3.03;;;2.33;;
7805;SDS011;3948;48.138;11.530;2022-08-01T06:12:25;7.82;;;2.42;;
7805;SDS011;3948;48.138;11.530;2022-08-01T06:14:51;3.25;;;2.80;;
7805;SDS011;3948;48.138;11.530;2022-08-01T06:17:17;3.00;;;2.60;;
7805;SDS011;3948;48.138;11.530;2022-08-01T06:19:42;4.10;;;2.92;;
7805;SDS011;3948;48.138;11.530;2022-08-01T06:22:08;6.30;;;4.13;;
7805;SDS011;3948;48.138;11.530;2022-08-01T06:24:34;4.20;;;2.97;;
7805;SDS011;3948;48.138;11.530;2022-08-01T06:27:00;3.70;;;2.70;;
7805;SDS011;3948;48.138;11.530;2022-08-01T06:29:26;5.28;;;2.60;;
7805;SDS011;3948;48.138;11.530;2022-08-01T06:31:54;2.40;;;2.20;;
7805;SDS011;3948;48.138;11.530;2022-08-01T06:34:20;4.57;;;2.60;;
7805;SDS011;3948;48.138;11.530;2022-08-01T06:36:47;7.00;;;3.03;;
7805;SDS011;3948;48.138;11.530;2022-08-01T06:39:12;3.80;;;2.40;;
7805;SDS011;3948;48.138;11.530;2022-08-01T06:41:38;4.45;;;2.63;;
7805;SDS011;3948;48.138;11.530;2022-08-01T06:44:06;5.28;;;2.72;;
7805;SDS011;3948;48.138;11.530;2022-08-01T06:46:32;5.30;;;2.75;;
7805;SDS011;3948;48.138;11.530;2022-08-01T06:48:58;4.75;;;2.60;;
7805;SDS011;3948;48.138;11.530;2022-08-01T06:51:23;3.40;;;2.85;;
7805;SDS011;3948;48.138;11.530;2022-08-01T06:53:49;2.60;;;2.40;;
7805;SDS011;3948;48.138;11.530;2022-08-01T06:56:15;2.92;;;2.72;;
7805;SDS011;3948;48.138;11.530;2022-08-01T06:58:42;3.08;;;2.85;;
7805;SDS011;3948;48.138;11.530;2022-08-01T07:01:23;2.95;;;2.70;;
7805;SDS011;3948;48.138;11.530;2022-08-01T07:03:49;3.78;;;2.90;;
7805;SDS011;3948;48.138;11.530;2022-08-01T07:06:14;3.20;;;3.00;;
7805;SDS011;3948;48.138;11.530;2022-08-01T07:08:40;5.00;;;3.35;;
7805;SDS011;3948;48.138;11.530;2022-08-01T07:11:06;5.03;;;3.45;;
7805;SDS011;3948;48.138;11.530;2022-08-01T07:13:31;3.17;;;2.97;;
7805;SDS011;3948;48.138;11.530;2022-08-01T07:15:58;3.00;;;2.70;;
7805;SDS011;3948;48.138;11.530;2022-08-01T07:18:24;3.38;;;3.08;;
7805;SDS011;3948;48.138;11.530;2022-08-01T07:20:49;3.88;;;2.72;;
7805;SDS011;3948;48.138;11.530;2022-08-01T07:23:15;3.10;;;2.80;;
7805;SDS011;3948;48.138;11.530;2022-08-01T07:25:42;3.30;;;3.00;;
7805;SDS011;3948;48.138;11.530;2022-08-01T07:28:08;5.00;;;2.92;;
7805;SDS011;3948;48.138;11.530;2022-08-01T07:30:38;4.53;;;2.83;;
7805;SDS011;3948;48.138;11.530;2022-08-01T07:33:07;4.78;;;2.80;;
7805;SDS011;3948;48.138;11.530;2022-08-01T07:35:32;3.17;;;2.70;;
7805;SDS011;3948;48.138;11.530;2022-08-01T07:37:59;3.00;;;2.70;;
7805;SDS011;3948;48.138;11.530;2022-08-01T07:40:24;2.85;;;2.58;;
7805;SDS011;3948;48.138;11.530;2022-08-01T07:42:50;4.43;;;2.78;;
7805;SDS011;3948;48.138;11.530;2022-08-01T07:45:16;3.63;;;3.20;;
7805;SDS011;3948;48.138;11.530;2022-08-01T07:47:42;4.18;;;2.85;;
7805;SDS011;3948;48.138;11.530;2022-08-01T07:50:07;4.72;;;3.08;;
7805;SDS011;3948;48.138;11.530;2022-08-01T07:52:33;4.65;;;3.00;;
7805;SDS011;3948;48.138;11.530;2022-08-01T07:54:59;3.53;;;2.90;;
7805;SDS011;3948;48.138;11.530;2022-08-01T07:57:25;2.88;;;2.53;;
7805;SDS011;3948;48.138;11.530;2022-08-01T07:59:51;3.28;;;2.55;;
7805;SDS011;3948;48.138;11.530;2022-08-01T08:02:16;3.60;;;2.15;;
7805;SDS011;3948;48.138;11.530;2022-08-01T08:04:42;4.70;;;2.65;;
7805;SDS011;3948;48.138;11.530;2022-08-01T08:07:08;5.10;;;2.70;;
7805;SDS011;3948;48.138;11.530;2022-08-01T08:09:34;2.38;;;2.20;;
7805;SDS011;3948;48.138;11.530;2022-08-01T08:11:59;3.08;;;2.55;;
7805;SDS011;3948;48.138;11.530;2022-08-01T08:14:25;2.30;;;2.10;;
7805;SDS011;3948;48.138;11.530;2022-08-01T08:16:51;2.50;;;2.17;;
7805;SDS011;3948;48.138;11.530;2022-08-01T08:19:16;2.42;;;2.22;;
7805;SDS011;3948;48.138;11.530;2022-08-01T08:21:42;3.40;;;2.10;;
7805;SDS011;3948;48.138;11.530;2022-08-01T08:24:09;2.40;;;2.20;;
7805;SDS011;3948;48.138;11.530;2022-08-01T08:26:48;6.32;;;2.47;;
7805;SDS011;3948;48.138;11.530;2022-08-01T08:29:16;2.45;;;2.08;;
7805;SDS011;3948;48.138;11.530;2022-08-01T08:31:42;3.17;;;1.90;;
7805;SDS011;3948;48.138;11.530;2022-08-01T08:34:08;2.78;;;2.20;;
7805;SDS011;3948;48.138;11.530;2022-08-01T08:36:33;3.55;;;2.20;;
7805;SDS011;3948;48.138;11.530;2022-08-01T08:38:59;2.22;;;2.10;;
7805;SDS011;3948;48.138;11.530;2022-08-01T08:41:25;2.53;;;2.17;;
7805;SDS011;3948;48.138;11.530;2022-08-01T08:43:51;2.25;;;2.00;;
7805;SDS011;3948;48.138;11.530;2022-08-01T08:46:18;2.53;;;2.33;;
7805;SDS011;3948;48.138;11.530;2022-08-01T08:48:44;2.28;;;2.15;;
7805;SDS011;3948;48.138;11.530;2022-08-01T08:51:11;2.17;;;1.98;;
7805;SDS011;3948;48.138;11.530;2022-08-01T08:53:41;2.28;;;2.10;;
7805;SDS011;3948;48.138;11.530;2022-08-01T08:56:09;5.70;;;2.25;;
7805;SDS011;3948;48.138;11.530;2022-08-01T08:58:37;2.42;;;2.20;;
7805;SDS011;3948;48.138;11.530;2022-08-01T09:01:06;2.10;;;2.00;;
7805;SDS011;3948;48.138;11.530;2022-08-01T09:03:36;3.53;;;2.10;;
7805;SDS011;3948;48.138;11.530;2022-08-01T09:06:02;2.58;;;2.13;;
7805;SDS011;3948;48.138;11.530;2022-08-01T09:08:28;1.95;;;1.85;;
7805;SDS011;3948;48.138;11.530;2022-08-01T09:10:54;3.40;;;2.10;;
7805;SDS011;3948;48.138;11.530;2022-08-01T09:13:19;1.73;;;1.63;;
7805;SDS011;3948;48.138;11.530;2022-08-01T09:15:46;2.47;;;1.73;;
7805;SDS011;3948;48.138;11.530;2022-08-01T09:21:08;2.10;;;1.90;;
7805;SDS011;3948;48.138;11.530;2022-08-01T09:23:43;2.40;;;1.77;;
7805;SDS011;3948;48.138;11.530;2022-08-01T09:26:15;2.33;;;2.10;;
7805;SDS011;3948;48.138;11.530;2022-08-01T09:28:42;1.60;;;1.50;;
7805;SDS011;3948;48.138;11.530;2022-08-01T09:31:15;3.00;;;1.80;;
7805;SDS011;3948;48.138;11.530;2022-08-01T09:34:01;1.98;;;1.80;;
7805;SDS011;3948;48.138;11.530;2022-08-01T09:39:18;1.88;;;1.50;;
7805;SDS011;3948;48.138;11.530;2022-08-01T09:41:44;1.95;;;1.52;;
7805;SDS011;3948;48.138;11.530;2022-08-01T09:44:11;1.65;;;1.55;;
7805;SDS011;3948;48.138;11.530;2022-08-01T09:46:48;1.73;;;1.63;;
7805;SDS011;3948;48.138;11.530;2022-08-01T09:49:30;3.92;;;1.70;;
7805;SDS011;3948;48.138;11.530;2022-08-01T09:54:42;1.63;;;1.52;;
7805;SDS011;3948;48.138;11.530;2022-08-01T09:57:17;1.92;;;1.80;;
7805;SDS011;3948;48.138;11.530;2022-08-01T09:59:47;1.55;;;1.42;;
7805;SDS011;3948;48.138;11.530;2022-08-01T10:02:26;1.90;;;1.50;;
7805;SDS011;3948;48.138;11.530;2022-08-01T10:04:57;1.58;;;1.50;;
7805;SDS011;3948;48.138;11.530;2022-08-01T10:07:23;1.67;;;1.58;;
7805;SDS011;3948;48.138;11.530;2022-08-01T10:09:49;4.38;;;1.58;;
7805;SDS011;3948;48.138;11.530;2022-08-01T10:12:19;1.42;;;1.33;;
7805;SDS011;3948;48.138;11.530;2022-08-01T10:14:47;1.50;;;1.40;;
7805;SDS011;3948;48.138;11.530;2022-08-01T10:17:15;1.63;;;1.52;;
7805;SDS011;3948;48.138;11.530;2022-08-01T10:19:42;2.72;;;1.40;;
7805;SDS011;3948;48.138;11.530;2022-08-01T10:22:10;3.40;;;1.50;;
7805;SDS011;3948;48.138;11.530;2022-08-01T10:24:43;1.40;;;1.30;;
7805;SDS011;3948;48.138;11.530;2022-08-01T10:27:11;1.60;;;1.50;;
7805;SDS011;3948;48.138;11.530;2022-08-01T10:32:34;2.28;;;1.60;;
7805;SDS011;3948;48.138;11.530;2022-08-01T10:35:01;2.63;;;1.50;;
7805;SDS011;3948;48.138;11.530;2022-08-01T10:37:28;1.65;;;1.55;;
7805;SDS011;3948;48.138;11.530;2022-08-01T10:39:54;3.22;;;1.45;;
7805;SDS011;3948;48.138;11.530;2022-08-01T10:42:20;1.60;;;1.50;;
7805;SDS011;3948;48.138;11.530;2022-08-01T10:44:47;2.38;;;1.38;;
7805;SDS011;3948;48.138;11.530;2022-08-01T10:47:14;3.65;;;1.60;;
7805;SDS011;3948;48.138;11.530;2022-08-01T10:49:45;1.50;;;1.40;;
7805;SDS011;3948;48.138;11.530;2022-08-01T10:52:17;4.20;;;1.40;;
7805;SDS011;3948;48.138;11.530;2022-08-01T10:54:44;4.53;;;1.50;;
7805;SDS011;3948;48.138;11.530;2022-08-01T10:57:10;2.70;;;1.40;;
7805;SDS011;3948;48.138;11.530;2022-08-01T10:59:47;1.50;;;1.40;;
7805;SDS011;3948;48.138;11.530;2022-08-01T11:02:26;1.83;;;1.30;;
7805;SDS011;3948;48.138;11.530;2022-08-01T11:07:52;2.97;;;1.30;;
7805;SDS011;3948;48.138;11.530;2022-08-01T11:10:24;1.55;;;1.45;;
7805;SDS011;3948;48.138;11.530;2022-08-01T11:12:51;2.47;;;1.50;;
7805;SDS011;3948;48.138;11.530;2022-08-01T11:15:18;1.90;;;1.60;;
7805;SDS011;3948;48.138;11.530;2022-08-01T11:17:52;5.22;;;1.65;;
7805;SDS011;3948;48.138;11.530;2022-08-01T11:20:26;2.17;;;1.42;;
7805;SDS011;3948;48.138;11.530;2022-08-01T11:25:27;1.50;;;1.40;;
7805;SDS011;3948;48.138;11.530;2022-08-01T11:33:13;1.40;;;1.30;;
7805;SDS011;3948;48.138;11.530;2022-08-01T11:38:40;2.65;;;1.50;;
7805;SDS011;3948;48.138;11.530;2022-08-01T11:49:24;2.03;;;1.52;;
7805;SDS011;3948;48.138;11.530;2022-08-01T11:54:43;2.00;;;1.70;;
7805;SDS011;3948;48.138;11.530;2022-08-01T11:57:23;1.70;;;1.58;;
7805;SDS011;3948;48.138;11.530;2022-08-01T11:59:56;1.70;;;1.60;;
7805;SDS011;3948;48.138;11.530;2022-08-01T12:04:57;1.40;;;1.30;;
7805;SDS011;3948;48.138;11.530;2022-08-01T12:07:30;2.17;;;1.50;;
7805;SDS011;3948;48.138;11.530;2022-08-01T12:10:16;2.83;;;1.38;;
7805;SDS011;3948;48.138;11.530;2022-08-01T12:12:44;1.83;;;1.20;;
7805;SDS011;3948;48.138;11.530;2022-08-01T12:15:10;4.55;;;1.40;;
7805;SDS011;3948;48.138;11.530;2022-08-01T12:20:03;3.70;;;1.30;;
7805;SDS011;3948;48.138;11.530;2022-08-01T12:22:31;2.78;;;1.30;;
7805;SDS011;3948;48.138;11.530;2022-08-01T12:25:04;1.58;;;1.30;;
7805;SDS011;3948;48.138;11.530;2022-08-01T12:27:35;1.20;;;1.20;;
7805;SDS011;3948;48.138;11.530;2022-08-01T12:30:02;1.50;;;1.20;;
7805;SDS011;3948;48.138;11.530;2022-08-01T12:32:32;2.75;;;1.35;;
7805;SDS011;3948;48.138;11.530;2022-08-01T12:35:05;2.78;;;1.50;;
7805;SDS011;3948;48.138;11.530;2022-08-01T12:37:39;1.60;;;1.05;;
7805;SDS011;3948;48.138;11.530;2022-08-01T12:43:06;1.40;;;1.30;;
7805;SDS011;3948;48.138;11.530;2022-08-01T12:45:40;1.88;;;1.30;;
7805;SDS011;3948;48.138;11.530;2022-08-01T12:48:09;2.72;;;1.40;;
7805;SDS011;3948;48.138;11.530;2022-08-01T12:50:39;3.88;;;1.20;;
7805;SDS011;3948;48.138;11.530;2022-08-01T12:53:12;5.82;;;1.25;;
7805;SDS011;3948;48.138;11.530;2022-08-01T12:55:50;3.25;;;1.80;;
7805;SDS011;3948;48.138;11.530;2022-08-01T12:58:17;2.20;;;1.38;;
7805;SDS011;3948;48.138;11.530;2022-08-01T13:00:45;2.08;;;1.30;;
7805;SDS011;3948;48.138;11.530;2022-08-01T13:03:17;2.78;;;1.33;;
7805;SDS011;3948;48.138;11.530;2022-08-01T13:05:48;1.55;;;1.23;;
7805;SDS011;3948;48.138;11.530;2022-08-01T13:08:15;2.00;;;1.27;;
7805;SDS011;3948;48.138;11.530;2022-08-01T13:10:46;1.30;;;1.20;;
7805;SDS011;3948;48.138;11.530;2022-08-01T13:13:12;1.65;;;1.40;;
7805;SDS011;3948;48.138;11.530;2022-08-01T13:15:40;2.33;;;1.50;;
7805;SDS011;3948;48.138;11.530;2022-08-01T13:21:09;5.22;;;1.27;;
7805;SDS011;3948;48.138;11.530;2022-08-01T13:23:35;1.70;;;1.45;;
7805;SDS011;3948;48.138;11.530;2022-08-01T13:26:02;1.90;;;1.42;;
7805;SDS011;3948;48.138;11.530;2022-08-01T13:28:28;3.78;;;1.30;;
7805;SDS011;3948;48.138;11.530;2022-08-01T13:33:44;1.60;;;1.50;;
7805;SDS011;3948;48.138;11.530;2022-08-01T13:36:11;2.75;;;1.70;;
7805;SDS011;3948;48.138;11.530;2022-08-01T13:38:38;2.47;;;1.67;;
7805;SDS011;3948;48.138;11.530;2022-08-01T13:41:23;2.03;;;1.65;;
7805;SDS011;3948;48.138;11.530;2022-08-01T13:43:49;3.08;;;1.60;;
7805;SDS011;3948;48.138;11.530;2022-08-01T13:46:15;3.17;;;1.48;;
7805;SDS011;3948;48.138;11.530;2022-08-01T13:48:41;4.63;;;1.60;;
7805;SDS011;3948;48.138;11.530;2022-08-01T13:51:07;2.30;;;1.40;;
7805;SDS011;3948;48.138;11.530;2022-08-01T13:53:33;2.28;;;1.40;;
7805;SDS011;3948;48.138;11.530;2022-08-01T13:55:59;3.28;;;1.30;;
7805;SDS011;3948;48.138;11.530;2022-08-01T13:58:24;1.75;;;1.40;;
7805;SDS011;3948;48.138;11.530;2022-08-01T14:00:50;1.50;;;1.40;;
7805;SDS011;3948;48.138;11.530;2022-08-01T14:03:16;1.50;;;1.40;;
7805;SDS011;3948;48.138;11.530;2022-08-01T14:05:42;1.13;;;1.13;;
7805;SDS011;3948;48.138;11.530;2022-08-01T14:08:08;1.40;;;1.30;;
7805;SDS011;3948;48.138;11.530;2022-08-01T14:10:34;2.47;;;1.60;;
7805;SDS011;3948;48.138;11.530;2022-08-01T14:13:00;2.45;;;1.58;;
7805;SDS011;3948;48.138;11.530;2022-08-01T14:15:26;2.35;;;1.63;;
7805;SDS011;3948;48.138;11.530;2022-08-01T14:17:51;5.57;;;1.85;;
7805;SDS011;3948;48.138;11.530;2022-08-01T14:20:17;2.22;;;1.60;;
7805;SDS011;3948;48.138;11.530;2022-08-01T14:22:47;2.83;;;1.70;;
7805;SDS011;3948;48.138;11.530;2022-08-01T14:25:13;1.80;;;1.70;;
7805;SDS011;3948;48.138;11.530;2022-08-01T14:27:39;3.40;;;1.65;;
7805;SDS011;3948;48.138;11.530;2022-08-01T14:30:06;3.10;;;1.60;;
7805;SDS011;3948;48.138;11.530;2022-08-01T14:32:33;5.32;;;2.83;;
7805;SDS011;3948;48.138;11.530;2022-08-01T14:34:59;2.42;;;1.90;;
7805;SDS011;3948;48.138;11.530;2022-08-01T14:37:28;2.97;;;1.75;;
7805;SDS011;3948;48.138;11.530;2022-08-01T14:39:55;1.90;;;1.67;;
7805;SDS011;3948;48.138;11.530;2022-08-01T14:42:24;3.28;;;1.80;;
7805;SDS011;3948;48.138;11.530;2022-08-01T14:44:50;4.13;;;1.98;;
7805;SDS011;3948;48.138;11.530;2022-08-01T14:47:16;2.10;;;1.75;;
7805;SDS011;3948;48.138;11.530;2022-08-01T14:49:42;3.20;;;1.90;;
7805;SDS011;3948;48.138;11.530;2022-08-01T14:52:08;3.28;;;2.00;;
7805;SDS011;3948;48.138;11.530;2022-08-01T14:54:33;4.25;;;1.80;;
7805;SDS011;3948;48.138;11.530;2022-08-01T14:56:59;2.67;;;1.75;;
7805;SDS011;3948;48.138;11.530;2022-08-01T14:59:25;5.00;;;1.83;;
7805;SDS011;3948;48.138;11.530;2022-08-01T15:01:50;2.85;;;1.98;;
7805;SDS011;3948;48.138;11.530;2022-08-01T15:04:16;3.55;;;1.80;;
7805;SDS011;3948;48.138;11.530;2022-08-01T15:06:42;5.55;;;1.95;;
7805;SDS011;3948;48.138;11.530;2022-08-01T15:09:09;2.95;;;1.90;;
7805;SDS011;3948;48.138;11.530;2022-08-01T15:11:35;3.28;;;1.83;;
7805;SDS011;3948;48.138;11.530;2022-08-01T15:14:01;3.05;;;2.00;;
7805;SDS011;3948;48.138;11.530;2022-08-01T15:16:45;3.10;;;2.22;;
7805;SDS011;3948;48.138;11.530;2022-08-01T15:19:11;2.63;;;1.80;;
7805;SDS011;3948;48.138;11.530;2022-08-01T15:21:37;1.70;;;1.60;;
7805;SDS011;3948;48.138;11.530;2022-08-01T15:24:03;2.00;;;1.90;;
7805;SDS011;3948;48.138;11.530;2022-08-01T15:26:28;3.55;;;2.10;;
7805;SDS011;3948;48.138;11.530;2022-08-01T15:28:54;2.95;;;1.95;;
7805;SDS011;3948;48.138;11.530;2022-08-01T15:31:20;4.07;;;1.92;;
7805;SDS011;3948;48.138;11.530;2022-08-01T15:33:46;3.42;;;2.00;;
7805;SDS011;3948;48.138;11.530;2022-08-01T15:36:12;3.70;;;2.28;;
7805;SDS011;3948;48.138;11.530;2022-08-01T15:38:37;2.60;;;2.40;;
7805;SDS011;3948;48.138;11.530;2022-08-01T15:41:03;5.32;;;2.35;;
7805;SDS011;3948;48.138;11.530;2022-08-01T15:43:29;4.13;;;2.30;;
7805;SDS011;3948;48.138;11.530;2022-08-01T15:45:55;2.65;;;2.08;;
7805;SDS011;3948;48.138;11.530;2022-08-01T15:48:22;4.55;;;2.25;;
7805;SDS011;3948;48.138;11.530;2022-08-01T15:50:48;3.85;;;2.17;;
7805;SDS011;3948;48.138;11.530;2022-08-01T15:53:13;3.47;;;2.20;;
7805;SDS011;3948;48.138;11.530;2022-08-01T15:55:39;4.97;;;2.00;;
7805;SDS011;3948;48.138;11.530;2022-08-01T15:58:05;3.22;;;2.35;;
7805;SDS011;3948;48.138;11.530;2022-08-01T16:00:32;2.33;;;2.13;;
7805;SDS011;3948;48.138;11.530;2022-08-01T16:02:57;3.08;;;2.13;;
7805;SDS011;3948;48.138;11.530;2022-08-01T16:05:23;2.30;;;2.00;;